createdAt,value
2023-04-10T00:00:46.030Z,9.30
2023-04-10T00:03:47.786Z,10.80
2023-04-10T00:06:49.616Z,9.50
2023-04-10T00:09:51.233Z,9.50
2023-04-10T00:12:53.837Z,9.80
2023-04-10T00:15:55.789Z,9.40
2023-04-10T00:18:57.427Z,9.60
2023-04-10T00:21:59.023Z,10.30
2023-04-10T00:25:00.764Z,9.70
2023-04-10T00:28:02.373Z,11.20
2023-04-10T00:31:05.250Z,11.00
2023-04-10T00:34:06.968Z,9.70
2023-04-10T00:37:08.764Z,9.50
2023-04-10T00:40:10.671Z,9.80
2023-04-10T00:43:12.283Z,9.50
2023-04-10T00:46:14.025Z,9.80
2023-04-10T00:49:15.870Z,9.40
2023-04-10T00:52:18.148Z,9.40
2023-04-10T00:55:19.873Z,11.60
2023-04-10T00:58:21.615Z,10.00
2023-04-10T01:01:23.311Z,10.60
2023-04-10T01:04:29.760Z,9.60
2023-04-10T01:07:53.941Z,9.30
2023-04-10T01:11:10.331Z,9.60
2023-04-10T01:14:20.964Z,9.70
2023-04-10T01:17:40.912Z,9.30
2023-04-10T01:20:42.985Z,9.70
2023-04-10T01:24:58.255Z,9.50
2023-04-10T01:28:21.937Z,9.60
2023-04-10T01:31:45.866Z,9.70
2023-04-10T01:34:53.236Z,9.30
2023-04-10T01:37:57.233Z,9.90
2023-04-10T01:41:01.135Z,9.70
2023-04-10T01:44:04.337Z,9.50
2023-04-10T01:47:07.561Z,9.70
2023-04-10T01:50:10.967Z,9.50
2023-04-10T01:53:13.813Z,9.60
2023-04-10T01:56:16.397Z,9.40
2023-04-10T01:59:18.323Z,9.90
2023-04-10T02:02:19.947Z,9.90
2023-04-10T02:05:23.021Z,9.70
2023-04-10T02:08:35.954Z,9.60
2023-04-10T02:11:58.336Z,9.50
2023-04-10T02:15:02.513Z,9.30
2023-04-10T02:18:06.428Z,9.40
2023-04-10T02:21:08.528Z,9.40
2023-04-10T02:24:10.133Z,9.20
2023-04-10T02:27:11.865Z,9.40
2023-04-10T02:30:13.403Z,9.60
2023-04-10T02:33:15.208Z,9.50
2023-04-10T02:36:16.795Z,9.60
2023-04-10T02:39:18.436Z,9.30
2023-04-10T02:42:20.304Z,9.40
2023-04-10T02:45:21.910Z,9.50
2023-04-10T02:48:23.573Z,9.10
2023-04-10T02:51:25.592Z,9.40
2023-04-10T02:54:27.356Z,9.10
2023-04-10T02:57:28.948Z,9.40
2023-04-10T03:00:31.256Z,9.10
2023-04-10T03:03:33.020Z,9.00
2023-04-10T03:06:34.642Z,9.00
2023-04-10T03:09:36.609Z,9.30
2023-04-10T03:12:38.216Z,9.50
2023-04-10T03:15:39.911Z,9.20
2023-04-10T03:18:41.837Z,9.10
2023-04-10T03:21:43.392Z,9.20
2023-04-10T03:24:45.031Z,9.50
2023-04-10T03:27:47.138Z,9.20
2023-04-10T03:30:50.249Z,9.20
2023-04-10T03:33:51.970Z,9.20
2023-04-10T03:36:53.694Z,9.40
2023-04-10T03:39:55.406Z,9.50
2023-04-10T03:42:57.304Z,9.20
2023-04-10T03:45:59.059Z,8.90
2023-04-10T03:49:00.624Z,9.50
2023-04-10T03:52:02.175Z,9.50
2023-04-10T03:55:03.920Z,9.50
2023-04-10T03:58:05.817Z,9.10
2023-04-10T04:01:07.702Z,8.90
2023-04-10T04:04:09.409Z,9.40
2023-04-10T04:07:12.509Z,9.40
2023-04-10T04:10:14.045Z,9.50
2023-04-10T04:13:15.587Z,9.20
2023-04-10T04:16:17.366Z,9.30
2023-04-10T04:19:19.028Z,9.30
2023-04-10T04:22:20.880Z,10.20
2023-04-10T04:25:22.881Z,9.40
2023-04-10T04:28:24.496Z,9.40
2023-04-10T04:31:32.167Z,11.00
2023-04-10T04:34:33.769Z,9.20
2023-04-10T04:37:35.385Z,9.50
2023-04-10T04:40:36.929Z,9.70
2023-04-10T04:43:38.515Z,9.10
2023-04-10T04:46:41.964Z,9.20
2023-04-10T04:49:45.592Z,9.40
2023-04-10T04:52:47.811Z,9.40
2023-04-10T04:55:49.389Z,10.80
2023-04-10T04:58:50.910Z,10.30
2023-04-10T05:01:52.613Z,9.20
2023-04-10T05:04:54.280Z,9.10
2023-04-10T05:07:56.134Z,9.30
2023-04-10T05:10:57.685Z,9.70
2023-04-10T05:14:00.269Z,10.00
2023-04-10T05:17:03.544Z,9.50
2023-04-10T05:20:06.058Z,9.90
2023-04-10T05:23:07.665Z,9.80
2023-04-10T05:26:09.324Z,9.80
2023-04-10T05:29:10.893Z,9.90
2023-04-10T05:32:12.734Z,9.80
2023-04-10T05:35:14.510Z,9.70
2023-04-10T05:38:16.084Z,9.90
2023-04-10T05:41:17.695Z,10.70
2023-04-10T05:44:19.265Z,10.20
2023-04-10T05:47:20.873Z,9.80
2023-04-10T05:50:23.172Z,9.80
2023-04-10T05:53:32.292Z,9.90
2023-04-10T05:56:34.118Z,10.40
2023-04-10T05:59:35.930Z,10.00
2023-04-10T06:02:37.885Z,10.20
2023-04-10T06:05:41.444Z,9.80
2023-04-10T06:08:43.027Z,10.10
2023-04-10T06:11:45.051Z,10.20
2023-04-10T06:14:47.684Z,10.40
2023-04-10T06:17:49.536Z,10.20
2023-04-10T06:20:51.154Z,10.80
2023-04-10T06:23:53.184Z,10.20
2023-04-10T06:26:54.844Z,10.60
2023-04-10T06:29:56.701Z,10.50
2023-04-10T06:32:58.381Z,10.40
2023-04-10T06:36:01.255Z,10.70
2023-04-10T06:39:02.992Z,10.70
2023-04-10T06:42:04.643Z,10.90
2023-04-10T06:45:06.916Z,12.70
2023-04-10T06:48:08.556Z,11.10
2023-04-10T06:51:10.281Z,11.20
2023-04-10T06:54:11.828Z,12.20
2023-04-10T06:57:13.545Z,11.60
2023-04-10T07:00:15.448Z,12.00
2023-04-10T07:03:17.083Z,11.90
2023-04-10T07:06:18.739Z,12.30
2023-04-10T07:09:20.330Z,12.30
2023-04-10T07:12:22.753Z,12.50
2023-04-10T07:15:24.844Z,12.10
2023-04-10T07:18:27.045Z,13.40
2023-04-10T07:21:28.660Z,14.20
2023-04-10T07:24:31.610Z,12.60
2023-04-10T07:27:33.253Z,12.40
2023-04-10T07:30:34.844Z,12.40
2023-04-10T07:33:36.789Z,12.60
2023-04-10T07:36:38.385Z,13.10
2023-04-10T07:39:40.385Z,12.70
2023-04-10T07:42:41.924Z,13.10
2023-04-10T07:45:43.479Z,13.10
2023-04-10T07:48:46.983Z,12.70
2023-04-10T07:51:48.583Z,13.00
2023-04-10T07:54:50.191Z,14.50
2023-04-10T07:57:52.199Z,13.10
2023-04-10T08:00:53.844Z,12.80
2023-04-10T08:03:58.873Z,15.10
2023-04-10T08:07:01.147Z,12.80
2023-04-10T08:10:03.290Z,13.40
2023-04-10T08:13:06.444Z,13.00
2023-04-10T08:16:08.600Z,13.90
2023-04-10T08:19:10.190Z,13.60
2023-04-10T08:22:11.742Z,13.50
2023-04-10T08:25:13.415Z,14.10
2023-04-10T08:28:15.276Z,14.00
2023-04-10T08:31:21.845Z,14.10
2023-04-10T08:34:24.328Z,13.90
2023-04-10T08:37:26.753Z,13.90
2023-04-10T08:40:28.418Z,14.00
2023-04-10T08:43:30.358Z,14.00
2023-04-10T08:46:35.975Z,14.40
2023-04-10T08:49:41.081Z,14.40
2023-04-10T08:52:45.647Z,13.00
2023-04-10T08:55:47.301Z,16.40
2023-04-10T08:58:51.610Z,14.90
2023-04-10T09:01:53.794Z,14.80
2023-04-10T09:04:58.820Z,14.40
2023-04-10T09:08:00.810Z,14.90
2023-04-10T09:11:02.643Z,14.70
2023-04-10T09:14:20.042Z,15.10
2023-04-10T09:17:24.036Z,15.00
2023-04-10T09:20:28.768Z,14.80
2023-04-10T09:23:30.476Z,17.00
2023-04-10T09:26:33.596Z,14.60
2023-04-10T09:29:48.286Z,15.10
2023-04-10T09:32:49.890Z,15.80
2023-04-10T09:35:51.556Z,14.90
2023-04-10T09:38:54.725Z,15.30
2023-04-10T09:41:56.312Z,17.10
2023-04-10T09:44:58.291Z,15.60
2023-04-10T09:48:08.389Z,15.50
2023-04-10T09:51:29.873Z,15.80
2023-04-10T09:54:37.962Z,17.00
2023-04-10T09:57:39.621Z,15.90
2023-04-10T10:00:46.228Z,15.60
2023-04-10T10:03:47.973Z,16.00
2023-04-10T10:06:49.850Z,16.10
2023-04-10T10:09:52.715Z,16.40
2023-04-10T10:13:01.429Z,15.90
2023-04-10T10:16:18.547Z,16.20
2023-04-10T10:19:30.896Z,16.30
2023-04-10T10:22:32.720Z,16.10
2023-04-10T10:25:38.667Z,16.20
2023-04-10T10:28:42.085Z,16.40
2023-04-10T10:31:44.384Z,16.20
2023-04-10T10:34:46.171Z,16.00
2023-04-10T10:37:48.044Z,17.10
2023-04-10T10:41:15.554Z,16.70
2023-04-10T10:44:39.900Z,16.60
2023-04-10T10:47:49.318Z,18.50
2023-04-10T10:50:53.244Z,17.20
2023-04-10T10:53:54.795Z,16.90
2023-04-10T10:56:56.410Z,16.20
2023-04-10T10:59:58.152Z,17.00
2023-04-10T11:03:08.919Z,16.70
2023-04-10T11:06:12.990Z,18.00
2023-04-10T11:10:00.891Z,16.90
2023-04-10T11:13:18.795Z,17.10
2023-04-10T11:16:21.379Z,17.10
2023-04-10T11:19:25.948Z,17.30
2023-04-10T11:22:28.041Z,17.40
2023-04-10T11:25:52.620Z,17.00
2023-04-10T11:28:54.355Z,16.70
2023-04-10T11:32:04.233Z,17.40
2023-04-10T11:35:06.527Z,17.80
2023-04-10T11:38:11.491Z,17.30
2023-04-10T11:41:13.100Z,17.60
2023-04-10T11:44:16.567Z,17.60
2023-04-10T11:47:18.180Z,17.80
2023-04-10T11:50:21.116Z,17.30
2023-04-10T11:53:23.233Z,17.30
2023-04-10T11:56:24.880Z,17.60
2023-04-10T11:59:27.037Z,17.40
2023-04-10T12:02:28.780Z,19.20
2023-04-10T12:05:46.164Z,17.50
2023-04-10T12:08:51.642Z,17.90
2023-04-10T12:12:03.391Z,17.80
2023-04-10T12:15:26.240Z,17.70
2023-04-10T12:18:29.709Z,18.50
2023-04-10T12:21:31.644Z,18.00
2023-04-10T12:24:43.490Z,17.60
2023-04-10T12:27:50.530Z,18.20
2023-04-10T12:30:53.416Z,18.40
2023-04-10T12:33:58.010Z,18.20
2023-04-10T12:36:59.725Z,18.70
2023-04-10T12:40:08.124Z,18.70
2023-04-10T12:43:09.724Z,18.40
2023-04-10T12:46:27.331Z,18.90
2023-04-10T12:49:28.953Z,18.60
2023-04-10T12:52:30.812Z,19.00
2023-04-10T12:55:32.829Z,18.60
2023-04-10T12:58:34.406Z,18.90
2023-04-10T13:01:38.778Z,18.60
2023-04-10T13:04:40.602Z,18.60
2023-04-10T13:07:42.604Z,19.80
2023-04-10T13:10:44.294Z,20.30
2023-04-10T13:13:46.757Z,18.50
2023-04-10T13:16:48.699Z,18.70
2023-04-10T13:19:50.789Z,19.70
2023-04-10T13:22:52.396Z,18.50
2023-04-10T13:25:54.064Z,18.50
2023-04-10T13:28:55.961Z,20.70
2023-04-10T13:32:00.019Z,18.80
2023-04-10T13:35:01.676Z,18.70
2023-04-10T13:38:03.960Z,18.40
2023-04-10T13:41:05.705Z,18.20
2023-04-10T13:44:07.334Z,17.80
2023-04-10T13:47:09.156Z,17.90
2023-04-10T13:50:11.179Z,18.00
2023-04-10T13:53:12.913Z,18.10
2023-04-10T13:56:14.506Z,19.00
2023-04-10T13:59:16.240Z,17.60
2023-04-10T14:02:17.867Z,18.30
2023-04-10T14:05:19.512Z,18.20
2023-04-10T14:08:21.090Z,20.00
2023-04-10T14:11:23.188Z,17.70
2023-04-10T14:14:24.753Z,17.70
2023-04-10T14:17:26.673Z,17.90
2023-04-10T14:20:28.352Z,17.80
2023-04-10T14:23:29.926Z,17.80
2023-04-10T14:26:31.600Z,17.50
2023-04-10T14:29:38.908Z,17.20
2023-04-10T14:32:44.495Z,18.90
2023-04-10T14:35:46.886Z,17.50
2023-04-10T14:38:48.543Z,17.50
2023-04-10T14:41:50.627Z,17.80
2023-04-10T14:44:52.339Z,17.30
2023-04-10T14:47:54.486Z,17.90
2023-04-10T14:50:59.135Z,18.80
2023-04-10T14:54:00.695Z,18.50
2023-04-10T14:57:02.473Z,18.40
2023-04-10T15:00:04.966Z,18.10
2023-04-10T15:03:09.622Z,18.50
2023-04-10T15:06:17.614Z,18.10
2023-04-10T15:09:21.381Z,18.10
2023-04-10T15:12:26.436Z,18.00
2023-04-10T15:15:36.526Z,20.80
2023-04-10T15:18:44.175Z,17.80
2023-04-10T15:22:07.049Z,17.80
2023-04-10T15:30:27.502Z,18.90
2023-04-10T15:33:41.053Z,16.80
2023-04-10T15:36:48.205Z,18.90
2023-04-10T15:40:20.183Z,16.90
2023-04-10T15:43:22.580Z,17.70
2023-04-10T15:46:25.699Z,17.40
2023-04-10T15:49:36.980Z,17.40
2023-04-10T15:52:39.820Z,17.50
2023-04-10T15:55:41.379Z,17.90
2023-04-10T15:58:43.213Z,17.60
2023-04-10T16:01:44.852Z,18.80
2023-04-10T16:04:46.546Z,17.50
2023-04-10T16:07:48.248Z,17.70
2023-04-10T16:10:49.832Z,17.00
2023-04-10T16:13:51.389Z,19.00
2023-04-10T16:16:52.926Z,16.70
2023-04-10T16:19:55.384Z,17.30
2023-04-10T16:22:58.105Z,16.90
2023-04-10T16:25:59.648Z,18.30
2023-04-10T16:29:01.290Z,17.00
2023-04-10T16:32:03.605Z,17.00
2023-04-10T16:35:06.197Z,16.70
2023-04-10T16:38:07.864Z,16.90
2023-04-10T16:41:10.118Z,16.90
2023-04-10T16:44:11.755Z,16.90
2023-04-10T16:47:13.530Z,17.20
2023-04-10T16:50:15.213Z,16.30
2023-04-10T16:53:17.741Z,16.00
2023-04-10T16:56:19.363Z,15.80
2023-04-10T16:59:21.001Z,15.60
2023-04-10T17:02:24.826Z,15.40
2023-04-10T17:05:32.512Z,15.40
2023-04-10T17:08:34.041Z,15.50
2023-04-10T17:11:35.651Z,14.90
2023-04-10T17:14:37.251Z,15.00
2023-04-10T17:17:38.838Z,14.40
2023-04-10T17:20:40.373Z,14.70
2023-04-10T17:23:42.205Z,14.70
2023-04-10T17:26:43.816Z,14.80
2023-04-10T17:29:45.598Z,14.80
2023-04-10T17:32:49.052Z,14.20
2023-04-10T17:35:51.895Z,14.10
2023-04-10T17:38:54.245Z,14.30
2023-04-10T17:41:56.668Z,14.50
2023-04-10T17:44:58.552Z,13.80
2023-04-10T17:48:00.311Z,14.40
2023-04-10T17:51:07.238Z,14.20
2023-04-10T17:54:08.977Z,14.30
2023-04-10T17:57:10.694Z,14.10
2023-04-10T18:00:15.486Z,14.30
2023-04-10T18:03:17.166Z,14.00
2023-04-10T18:06:18.958Z,14.00
2023-04-10T18:09:20.648Z,14.20
2023-04-10T18:12:22.262Z,13.90
2023-04-10T18:15:24.286Z,13.70
2023-04-10T18:18:25.848Z,13.80
2023-04-10T18:21:27.715Z,13.70
2023-04-10T18:24:29.293Z,13.30
2023-04-10T18:27:31.618Z,13.30
2023-04-10T18:30:33.349Z,13.10
2023-04-10T18:33:35.110Z,13.30
2023-04-10T18:36:36.709Z,13.30
2023-04-10T18:39:38.410Z,13.30
2023-04-10T18:42:39.994Z,14.20
2023-04-10T18:45:42.098Z,14.70
2023-04-10T18:48:43.927Z,15.30
2023-04-10T18:51:45.489Z,12.90
2023-04-10T18:54:47.039Z,12.50
2023-04-10T18:57:48.628Z,12.70
2023-04-10T19:00:50.313Z,12.90
2023-04-10T19:03:53.561Z,12.50
2023-04-10T19:06:55.343Z,12.40
2023-04-10T19:09:56.929Z,12.30
2023-04-10T19:12:58.505Z,13.90
2023-04-10T19:16:03.515Z,12.60
2023-04-10T19:19:05.587Z,12.70
2023-04-10T19:22:07.152Z,14.60
2023-04-10T19:25:08.801Z,13.00
2023-04-10T19:28:10.473Z,12.10
2023-04-10T19:31:12.362Z,12.50
2023-04-10T19:34:13.988Z,12.30
2023-04-10T19:37:15.612Z,13.50
2023-04-10T19:40:19.457Z,11.80
2023-04-10T19:43:21.036Z,11.90
2023-04-10T19:46:22.801Z,11.50
2023-04-10T19:49:24.570Z,11.70
2023-04-10T19:52:26.844Z,11.50
2023-04-10T19:55:28.680Z,11.90
2023-04-10T19:58:40.034Z,13.10
2023-04-10T20:01:42.997Z,14.10
2023-04-10T20:04:47.092Z,11.60
2023-04-10T20:07:50.411Z,11.90
2023-04-10T20:10:51.975Z,11.90
2023-04-10T20:13:53.521Z,11.40
2023-04-10T20:16:55.145Z,11.80
2023-04-10T20:19:57.026Z,13.60
2023-04-10T20:22:58.572Z,11.50
2023-04-10T20:26:00.497Z,11.40
2023-04-10T20:29:02.103Z,11.50
2023-04-10T20:32:03.691Z,12.70
2023-04-10T20:35:06.008Z,11.20
2023-04-10T20:38:07.966Z,11.40
2023-04-10T20:41:09.579Z,11.40
2023-04-10T20:44:11.201Z,12.40
2023-04-10T20:47:13.111Z,12.00
2023-04-10T20:50:14.814Z,11.50
2023-04-10T20:53:16.430Z,11.50
2023-04-10T20:56:18.052Z,11.50
2023-04-10T20:59:19.654Z,10.90
2023-04-10T21:02:21.372Z,11.40
2023-04-10T21:05:23.114Z,11.00
2023-04-10T21:08:24.658Z,10.90
2023-04-10T21:11:27.339Z,11.60
2023-04-10T21:14:29.672Z,10.90
2023-04-10T21:17:32.368Z,11.40
2023-04-10T21:20:34.020Z,10.80
2023-04-10T21:23:35.692Z,11.30
2023-04-10T21:26:37.287Z,10.70
2023-04-10T21:29:38.832Z,10.60
2023-04-10T21:32:40.533Z,11.00
2023-04-10T21:35:43.898Z,10.80
2023-04-10T21:38:45.523Z,11.10
2023-04-10T21:41:47.299Z,10.90
2023-04-10T21:44:48.837Z,10.80
2023-04-10T21:47:50.759Z,10.60
2023-04-10T21:50:52.817Z,11.80
2023-04-10T21:53:54.596Z,10.80
2023-04-10T21:56:56.250Z,10.30
2023-04-10T21:59:57.822Z,10.60
2023-04-10T22:02:59.555Z,10.80
2023-04-10T22:06:01.378Z,10.60
2023-04-10T22:09:02.978Z,10.40
2023-04-10T22:12:04.796Z,12.40
2023-04-10T22:15:07.751Z,10.40
2023-04-10T22:18:09.411Z,10.50
2023-04-10T22:21:11.118Z,10.90
2023-04-10T22:24:12.674Z,10.90
2023-04-10T22:27:14.232Z,10.50
2023-04-10T22:30:15.953Z,10.60
2023-04-10T22:33:17.503Z,10.60
2023-04-10T22:36:19.038Z,10.30
2023-04-10T22:39:20.656Z,10.50
2023-04-10T22:42:22.258Z,10.30
2023-04-10T22:45:23.850Z,10.10
2023-04-10T22:48:25.537Z,10.00
2023-04-10T22:51:27.234Z,9.20
2023-04-10T22:54:29.491Z,10.20
2023-04-10T22:57:31.387Z,10.00
2023-04-10T23:00:36.121Z,9.80
2023-04-10T23:03:38.350Z,11.50
2023-04-10T23:06:40.246Z,10.00
2023-04-10T23:09:41.811Z,9.80
2023-04-10T23:12:43.378Z,9.90
2023-04-10T23:15:52.106Z,10.00
2023-04-10T23:18:53.917Z,10.30
2023-04-10T23:21:55.709Z,8.00
2023-04-10T23:24:57.734Z,9.80
2023-04-10T23:27:59.877Z,9.90
2023-04-10T23:31:01.518Z,10.00
2023-04-10T23:34:03.482Z,10.20
2023-04-10T23:37:05.093Z,9.80
2023-04-10T23:40:07.795Z,10.10
2023-04-10T23:43:09.437Z,10.40
2023-04-10T23:46:11.034Z,10.40
2023-04-10T23:49:12.652Z,10.00
2023-04-10T23:52:14.430Z,10.20
2023-04-10T23:55:18.190Z,11.70
2023-04-10T23:58:19.871Z,10.30
